sensor_id;sensor_type;location;lat;lon;timestamp;temperature;humidity
61201;DHT22;47065;52.898;6.992;2022-09-03T00:03:00;16.90;63.20
61201;DHT22;47065;52.898;6.992;2022-09-03T00:05:37;16.90;63.20
61201;DHT22;47065;52.898;6.992;2022-09-03T00:10:56;16.80;63.30
61201;DHT22;47065;52.898;6.992;2022-09-03T00:13:37;16.80;63.50
61201;DHT22;47065;52.898;6.992;2022-09-03T00:16:08;16.80;63.40
61201;DHT22;47065;52.898;6.992;2022-09-03T00:18:42;16.70;63.60
61201;DHT22;47065;52.898;6.992;2022-09-03T00:21:17;16.70;63.70
61201;DHT22;47065;52.898;6.992;2022-09-03T00:23:46;16.70;63.70
61201;DHT22;47065;52.898;6.992;2022-09-03T00:28:46;16.60;63.90
61201;DHT22;47065;52.898;6.992;2022-09-03T00:31:28;16.60;64.20
61201;DHT22;47065;52.898;6.992;2022-09-03T00:34:05;16.50;64.10
61201;DHT22;47065;52.898;6.992;2022-09-03T00:38:57;16.50;64.30
61201;DHT22;47065;52.898;6.992;2022-09-03T00:41:35;16.50;64.60
61201;DHT22;47065;52.898;6.992;2022-09-03T00:46:41;16.50;64.40
61201;DHT22;47065;52.898;6.992;2022-09-03T00:52:29;16.40;64.50
61201;DHT22;47065;52.898;6.992;2022-09-03T01:00:30;16.40;64.60
61201;DHT22;47065;52.898;6.992;2022-09-03T01:03:19;16.30;64.70
61201;DHT22;47065;52.898;6.992;2022-09-03T01:08:58;16.30;65.00
61201;DHT22;47065;52.898;6.992;2022-09-03T01:11:58;16.30;65.10
61201;DHT22;47065;52.898;6.992;2022-09-03T01:17:44;16.20;65.10
61201;DHT22;47065;52.898;6.992;2022-09-03T01:28:39;16.20;65.40
61201;DHT22;47065;52.898;6.992;2022-09-03T01:32:00;16.20;65.50
61201;DHT22;47065;52.898;6.992;2022-09-03T01:36:57;16.20;65.80
61201;DHT22;47065;52.898;6.992;2022-09-03T01:41:55;16.20;66.10
61201;DHT22;47065;52.898;6.992;2022-09-03T01:44:41;16.20;66.30
61201;DHT22;47065;52.898;6.992;2022-09-03T01:47:28;16.20;66.20
61201;DHT22;47065;52.898;6.992;2022-09-03T01:50:17;16.20;66.40
61201;DHT22;47065;52.898;6.992;2022-09-03T01:55:57;16.20;66.40
61201;DHT22;47065;52.898;6.992;2022-09-03T01:58:40;16.20;66.30
61201;DHT22;47065;52.898;6.992;2022-09-03T02:01:28;16.20;66.50
61201;DHT22;47065;52.898;6.992;2022-09-03T02:03:55;16.30;66.50
61201;DHT22;47065;52.898;6.992;2022-09-03T02:06:28;16.20;66.50
61201;DHT22;47065;52.898;6.992;2022-09-03T02:08:56;16.20;66.40
61201;DHT22;47065;52.898;6.992;2022-09-03T02:11:22;16.30;66.70
61201;DHT22;47065;52.898;6.992;2022-09-03T02:13:50;16.20;66.80
61201;DHT22;47065;52.898;6.992;2022-09-03T02:16:22;16.20;66.60
61201;DHT22;47065;52.898;6.992;2022-09-03T02:18:55;16.30;66.60
61201;DHT22;47065;52.898;6.992;2022-09-03T02:21:23;16.30;66.70
61201;DHT22;47065;52.898;6.992;2022-09-03T02:23:50;16.30;66.70
61201;DHT22;47065;52.898;6.992;2022-09-03T02:26:20;16.30;66.70
61201;DHT22;47065;52.898;6.992;2022-09-03T02:28:47;16.30;67.00
61201;DHT22;47065;52.898;6.992;2022-09-03T02:31:13;16.30;67.00
61201;DHT22;47065;52.898;6.992;2022-09-03T02:33:40;16.30;67.00
61201;DHT22;47065;52.898;6.992;2022-09-03T02:36:11;16.30;67.20
61201;DHT22;47065;52.898;6.992;2022-09-03T02:38:37;16.30;67.10
61201;DHT22;47065;52.898;6.992;2022-09-03T02:41:03;16.30;67.10
61201;DHT22;47065;52.898;6.992;2022-09-03T02:43:48;16.20;67.10
61201;DHT22;47065;52.898;6.992;2022-09-03T02:46:23;16.20;67.20
61201;DHT22;47065;52.898;6.992;2022-09-03T02:48:51;16.10;67.30
61201;DHT22;47065;52.898;6.992;2022-09-03T02:51:17;16.10;67.50
61201;DHT22;47065;52.898;6.992;2022-09-03T02:53:43;16.10;67.70
61201;DHT22;47065;52.898;6.992;2022-09-03T02:56:09;16.00;67.80
61201;DHT22;47065;52.898;6.992;2022-09-03T02:58:35;16.00;68.20
61201;DHT22;47065;52.898;6.992;2022-09-03T03:01:01;15.90;68.30
61201;DHT22;47065;52.898;6.992;2022-09-03T03:03:26;15.90;68.50
61201;DHT22;47065;52.898;6.992;2022-09-03T03:05:54;15.80;68.60
61201;DHT22;47065;52.898;6.992;2022-09-03T03:08:23;15.80;68.70
61201;DHT22;47065;52.898;6.992;2022-09-03T03:10:51;15.80;68.80
61201;DHT22;47065;52.898;6.992;2022-09-03T03:13:17;15.80;69.00
61201;DHT22;47065;52.898;6.992;2022-09-03T03:15:43;15.70;69.10
61201;DHT22;47065;52.898;6.992;2022-09-03T03:18:10;15.70;69.30
61201;DHT22;47065;52.898;6.992;2022-09-03T03:20:39;15.70;69.40
61201;DHT22;47065;52.898;6.992;2022-09-03T03:23:06;15.70;69.60
61201;DHT22;47065;52.898;6.992;2022-09-03T03:25:33;15.70;69.70
61201;DHT22;47065;52.898;6.992;2022-09-03T03:27:59;15.70;69.80
61201;DHT22;47065;52.898;6.992;2022-09-03T03:30:25;15.70;69.90
61201;DHT22;47065;52.898;6.992;2022-09-03T03:32:52;15.70;70.20
61201;DHT22;47065;52.898;6.992;2022-09-03T03:35:18;15.60;70.10
61201;DHT22;47065;52.898;6.992;2022-09-03T03:37:43;15.70;70.20
61201;DHT22;47065;52.898;6.992;2022-09-03T03:40:09;15.60;70.30
61201;DHT22;47065;52.898;6.992;2022-09-03T03:42:36;15.60;70.40
61201;DHT22;47065;52.898;6.992;2022-09-03T03:45:01;15.60;70.60
61201;DHT22;47065;52.898;6.992;2022-09-03T03:47:28;15.60;70.60
61201;DHT22;47065;52.898;6.992;2022-09-03T03:49:56;15.50;70.60
61201;DHT22;47065;52.898;6.992;2022-09-03T03:52:23;15.50;70.80
61201;DHT22;47065;52.898;6.992;2022-09-03T03:54:50;15.50;71.00
61201;DHT22;47065;52.898;6.992;2022-09-03T03:57:16;15.50;71.00
61201;DHT22;47065;52.898;6.992;2022-09-03T03:59:43;15.50;71.20
61201;DHT22;47065;52.898;6.992;2022-09-03T04:02:09;15.50;71.50
61201;DHT22;47065;52.898;6.992;2022-09-03T04:04:35;15.40;71.50
61201;DHT22;47065;52.898;6.992;2022-09-03T04:07:01;15.40;71.50
61201;DHT22;47065;52.898;6.992;2022-09-03T04:09:26;15.40;71.60
61201;DHT22;47065;52.898;6.992;2022-09-03T04:11:52;15.40;71.90
61201;DHT22;47065;52.898;6.992;2022-09-03T04:14:17;15.30;72.10
61201;DHT22;47065;52.898;6.992;2022-09-03T04:16:43;15.30;72.20
61201;DHT22;47065;52.898;6.992;2022-09-03T04:19:12;15.30;72.50
61201;DHT22;47065;52.898;6.992;2022-09-03T04:21:38;15.20;72.60
61201;DHT22;47065;52.898;6.992;2022-09-03T04:24:04;15.20;72.90
61201;DHT22;47065;52.898;6.992;2022-09-03T04:26:32;15.20;73.10
61201;DHT22;47065;52.898;6.992;2022-09-03T04:28:58;15.10;73.20
61201;DHT22;47065;52.898;6.992;2022-09-03T04:31:25;15.00;73.40
61201;DHT22;47065;52.898;6.992;2022-09-03T04:33:51;15.00;73.60
61201;DHT22;47065;52.898;6.992;2022-09-03T04:36:21;14.90;73.90
61201;DHT22;47065;52.898;6.992;2022-09-03T04:38:50;14.90;74.20
61201;DHT22;47065;52.898;6.992;2022-09-03T04:41:22;14.80;74.50
61201;DHT22;47065;52.898;6.992;2022-09-03T04:43:50;14.80;75.00
61201;DHT22;47065;52.898;6.992;2022-09-03T04:46:15;14.70;75.30
61201;DHT22;47065;52.898;6.992;2022-09-03T04:48:41;14.70;75.60
61201;DHT22;47065;52.898;6.992;2022-09-03T04:51:13;14.70;75.80
61201;DHT22;47065;52.898;6.992;2022-09-03T04:53:41;14.60;76.00
61201;DHT22;47065;52.898;6.992;2022-09-03T04:56:19;14.60;76.50
61201;DHT22;47065;52.898;6.992;2022-09-03T04:58:45;14.50;76.80
61201;DHT22;47065;52.898;6.992;2022-09-03T05:01:19;14.50;77.00
61201;DHT22;47065;52.898;6.992;2022-09-03T05:03:45;14.40;77.50
61201;DHT22;47065;52.898;6.992;2022-09-03T05:06:10;14.40;77.80
61201;DHT22;47065;52.898;6.992;2022-09-03T05:08:36;14.40;78.10
61201;DHT22;47065;52.898;6.992;2022-09-03T05:11:06;14.30;79.00
61201;DHT22;47065;52.898;6.992;2022-09-03T05:13:33;14.30;78.70
61201;DHT22;47065;52.898;6.992;2022-09-03T05:16:04;14.30;79.00
61201;DHT22;47065;52.898;6.992;2022-09-03T05:18:31;14.20;79.60
61201;DHT22;47065;52.898;6.992;2022-09-03T05:21:05;14.20;79.90
61201;DHT22;47065;52.898;6.992;2022-09-03T05:23:34;14.20;80.10
61201;DHT22;47065;52.898;6.992;2022-09-03T05:26:02;14.20;80.40
61201;DHT22;47065;52.898;6.992;2022-09-03T05:28:30;14.20;80.90
61201;DHT22;47065;52.898;6.992;2022-09-03T05:31:08;14.20;80.90
61201;DHT22;47065;52.898;6.992;2022-09-03T05:33:38;14.20;81.10
61201;DHT22;47065;52.898;6.992;2022-09-03T05:36:06;14.30;81.30
61201;DHT22;47065;52.898;6.992;2022-09-03T05:38:32;14.30;81.80
61201;DHT22;47065;52.898;6.992;2022-09-03T05:40:59;14.30;81.90
61201;DHT22;47065;52.898;6.992;2022-09-03T05:43:25;14.30;82.10
61201;DHT22;47065;52.898;6.992;2022-09-03T05:45:55;14.30;82.80
61201;DHT22;47065;52.898;6.992;2022-09-03T05:48:21;14.40;82.60
61201;DHT22;47065;52.898;6.992;2022-09-03T05:50:46;14.40;83.20
61201;DHT22;47065;52.898;6.992;2022-09-03T05:53:13;14.40;83.40
61201;DHT22;47065;52.898;6.992;2022-09-03T05:55:38;14.50;83.60
61201;DHT22;47065;52.898;6.992;2022-09-03T05:58:04;14.50;83.40
61201;DHT22;47065;52.898;6.992;2022-09-03T06:00:29;14.50;83.70
61201;DHT22;47065;52.898;6.992;2022-09-03T06:02:55;14.60;83.60
61201;DHT22;47065;52.898;6.992;2022-09-03T06:05:22;14.60;84.00
61201;DHT22;47065;52.898;6.992;2022-09-03T06:07:48;14.70;84.10
61201;DHT22;47065;52.898;6.992;2022-09-03T06:10:14;14.70;84.20
61201;DHT22;47065;52.898;6.992;2022-09-03T06:12:42;14.80;84.00
61201;DHT22;47065;52.898;6.992;2022-09-03T06:15:14;14.80;83.90
61201;DHT22;47065;52.898;6.992;2022-09-03T06:17:39;14.80;83.60
61201;DHT22;47065;52.898;6.992;2022-09-03T06:20:05;14.80;83.40
61201;DHT22;47065;52.898;6.992;2022-09-03T06:22:31;14.90;83.60
61201;DHT22;47065;52.898;6.992;2022-09-03T06:24:57;14.90;83.30
61201;DHT22;47065;52.898;6.992;2022-09-03T06:27:22;15.00;83.10
61201;DHT22;47065;52.898;6.992;2022-09-03T06:29:48;15.00;82.90
61201;DHT22;47065;52.898;6.992;2022-09-03T06:32:14;15.00;83.30
61201;DHT22;47065;52.898;6.992;2022-09-03T06:34:39;15.10;83.10
61201;DHT22;47065;52.898;6.992;2022-09-03T06:37:05;15.10;83.00
61201;DHT22;47065;52.898;6.992;2022-09-03T06:39:31;15.10;82.90
61201;DHT22;47065;52.898;6.992;2022-09-03T06:41:56;15.10;82.80
61201;DHT22;47065;52.898;6.992;2022-09-03T06:44:22;15.20;83.30
61201;DHT22;47065;52.898;6.992;2022-09-03T06:46:48;15.20;83.20
61201;DHT22;47065;52.898;6.992;2022-09-03T06:49:14;15.20;82.90
61201;DHT22;47065;52.898;6.992;2022-09-03T06:51:40;15.20;83.20
61201;DHT22;47065;52.898;6.992;2022-09-03T06:54:09;15.30;83.10
61201;DHT22;47065;52.898;6.992;2022-09-03T06:56:36;15.50;84.30
61201;DHT22;47065;52.898;6.992;2022-09-03T06:59:08;16.00;83.60
61201;DHT22;47065;52.898;6.992;2022-09-03T07:01:34;16.50;82.50
61201;DHT22;47065;52.898;6.992;2022-09-03T07:04:02;17.00;81.90
61201;DHT22;47065;52.898;6.992;2022-09-03T07:06:34;17.50;79.00
61201;DHT22;47065;52.898;6.992;2022-09-03T07:09:02;17.70;76.90
61201;DHT22;47065;52.898;6.992;2022-09-03T07:11:29;17.90;76.00
61201;DHT22;47065;52.898;6.992;2022-09-03T07:13:58;17.90;75.30
61201;DHT22;47065;52.898;6.992;2022-09-03T07:16:26;18.00;74.20
61201;DHT22;47065;52.898;6.992;2022-09-03T07:18:52;18.10;75.00
61201;DHT22;47065;52.898;6.992;2022-09-03T07:21:20;18.20;74.20
61201;DHT22;47065;52.898;6.992;2022-09-03T07:23:47;18.40;73.40
61201;DHT22;47065;52.898;6.992;2022-09-03T07:26:19;18.50;73.20
61201;DHT22;47065;52.898;6.992;2022-09-03T07:28:46;18.60;72.70
61201;DHT22;47065;52.898;6.992;2022-09-03T07:31:16;18.70;71.70
61201;DHT22;47065;52.898;6.992;2022-09-03T07:33:45;18.90;70.30
61201;DHT22;47065;52.898;6.992;2022-09-03T07:36:14;19.00;70.60
61201;DHT22;47065;52.898;6.992;2022-09-03T07:38:41;19.10;70.30
61201;DHT22;47065;52.898;6.992;2022-09-03T07:41:09;19.20;70.10
61201;DHT22;47065;52.898;6.992;2022-09-03T07:43:37;19.30;69.60
61201;DHT22;47065;52.898;6.992;2022-09-03T07:46:08;19.40;69.20
61201;DHT22;47065;52.898;6.992;2022-09-03T07:48:41;19.50;68.30
61201;DHT22;47065;52.898;6.992;2022-09-03T07:51:08;19.60;68.30
61201;DHT22;47065;52.898;6.992;2022-09-03T07:53:34;19.80;67.30
61201;DHT22;47065;52.898;6.992;2022-09-03T07:56:06;19.90;67.30
61201;DHT22;47065;52.898;6.992;2022-09-03T07:58:33;20.00;65.90
61201;DHT22;47065;52.898;6.992;2022-09-03T08:01:07;20.10;65.60
61201;DHT22;47065;52.898;6.992;2022-09-03T08:03:36;20.10;65.40
61201;DHT22;47065;52.898;6.992;2022-09-03T08:06:06;20.20;65.60
61201;DHT22;47065;52.898;6.992;2022-09-03T08:08:33;20.30;65.40
61201;DHT22;47065;52.898;6.992;2022-09-03T08:11:09;20.40;65.40
61201;DHT22;47065;52.898;6.992;2022-09-03T08:13:43;20.50;64.50
61201;DHT22;47065;52.898;6.992;2022-09-03T08:16:16;20.60;63.80
61201;DHT22;47065;52.898;6.992;2022-09-03T08:18:42;20.80;63.90
61201;DHT22;47065;52.898;6.992;2022-09-03T08:21:18;21.10;63.50
61201;DHT22;47065;52.898;6.992;2022-09-03T08:23:46;21.20;63.10
61201;DHT22;47065;52.898;6.992;2022-09-03T08:26:13;21.40;62.80
61201;DHT22;47065;52.898;6.992;2022-09-03T08:28:39;21.60;62.40
61201;DHT22;47065;52.898;6.992;2022-09-03T08:31:19;21.60;62.60
61201;DHT22;47065;52.898;6.992;2022-09-03T08:33:47;21.60;62.30
61201;DHT22;47065;52.898;6.992;2022-09-03T08:36:24;21.80;62.50
61201;DHT22;47065;52.898;6.992;2022-09-03T08:38:52;22.50;62.30
61201;DHT22;47065;52.898;6.992;2022-09-03T08:47:06;26.50;52.50
61201;DHT22;47065;52.898;6.992;2022-09-03T08:52:20;29.30;49.40
61201;DHT22;47065;52.898;6.992;2022-09-03T08:54:48;30.20;46.90
61201;DHT22;47065;52.898;6.992;2022-09-03T08:57:18;30.90;46.80
61201;DHT22;47065;52.898;6.992;2022-09-03T08:59:46;31.50;44.70
61201;DHT22;47065;52.898;6.992;2022-09-03T09:02:26;32.10;44.00
61201;DHT22;47065;52.898;6.992;2022-09-03T09:05:20;32.70;42.80
61201;DHT22;47065;52.898;6.992;2022-09-03T09:07:52;33.40;40.10
61201;DHT22;47065;52.898;6.992;2022-09-03T09:10:25;33.80;41.60
61201;DHT22;47065;52.898;6.992;2022-09-03T09:21:07;34.80;37.60
61201;DHT22;47065;52.898;6.992;2022-09-03T09:23:45;34.90;38.20
61201;DHT22;47065;52.898;6.992;2022-09-03T09:26:15;35.00;37.90
61201;DHT22;47065;52.898;6.992;2022-09-03T09:28:44;35.30;37.70
61201;DHT22;47065;52.898;6.992;2022-09-03T09:31:13;35.40;37.40
61201;DHT22;47065;52.898;6.992;2022-09-03T09:33:40;35.50;36.90
61201;DHT22;47065;52.898;6.992;2022-09-03T09:36:13;35.60;37.10
61201;DHT22;47065;52.898;6.992;2022-09-03T09:38:43;35.80;36.40
61201;DHT22;47065;52.898;6.992;2022-09-03T09:43:39;36.20;36.20
61201;DHT22;47065;52.898;6.992;2022-09-03T09:46:12;36.30;35.90
61201;DHT22;47065;52.898;6.992;2022-09-03T09:48:49;36.50;35.80
61201;DHT22;47065;52.898;6.992;2022-09-03T09:53:47;36.30;35.20
61201;DHT22;47065;52.898;6.992;2022-09-03T09:56:24;35.90;36.10
61201;DHT22;47065;52.898;6.992;2022-09-03T09:59:04;35.10;36.40
61201;DHT22;47065;52.898;6.992;2022-09-03T10:01:31;34.40;35.90
61201;DHT22;47065;52.898;6.992;2022-09-03T10:03:59;33.60;36.80
61201;DHT22;47065;52.898;6.992;2022-09-03T10:06:27;32.70;37.20
61201;DHT22;47065;52.898;6.992;2022-09-03T10:09:14;32.10;37.60
61201;DHT22;47065;52.898;6.992;2022-09-03T10:11:44;31.40;38.60
61201;DHT22;47065;52.898;6.992;2022-09-03T10:14:23;30.80;39.20
61201;DHT22;47065;52.898;6.992;2022-09-03T10:16:59;30.30;39.90
61201;DHT22;47065;52.898;6.992;2022-09-03T10:20:00;29.70;39.80
61201;DHT22;47065;52.898;6.992;2022-09-03T10:28:37;28.60;42.20
61201;DHT22;47065;52.898;6.992;2022-09-03T10:39:18;27.80;41.90
61201;DHT22;47065;52.898;6.992;2022-09-03T10:42:40;27.70;42.70
61201;DHT22;47065;52.898;6.992;2022-09-03T10:50:43;27.80;42.60
61201;DHT22;47065;52.898;6.992;2022-09-03T10:56:11;27.60;42.10
61201;DHT22;47065;52.898;6.992;2022-09-03T10:59:24;27.50;42.90
61201;DHT22;47065;52.898;6.992;2022-09-03T11:07:44;27.60;43.40
61201;DHT22;47065;52.898;6.992;2022-09-03T11:13:52;27.90;43.10
61201;DHT22;47065;52.898;6.992;2022-09-03T11:16:05;28.00;41.20
61201;DHT22;47065;52.898;6.992;2022-09-03T11:18:41;28.10;41.90
61201;DHT22;47065;52.898;6.992;2022-09-03T11:21:11;28.30;42.00
61201;DHT22;47065;52.898;6.992;2022-09-03T11:23:44;28.30;41.40
61201;DHT22;47065;52.898;6.992;2022-09-03T11:26:14;28.40;41.60
61201;DHT22;47065;52.898;6.992;2022-09-03T11:34:06;28.40;41.40
61201;DHT22;47065;52.898;6.992;2022-09-03T11:36:37;28.40;40.90
61201;DHT22;47065;52.898;6.992;2022-09-03T11:39:33;28.40;41.10
61201;DHT22;47065;52.898;6.992;2022-09-03T11:42:03;28.40;41.80
61201;DHT22;47065;52.898;6.992;2022-09-03T11:44:43;28.30;41.70
61201;DHT22;47065;52.898;6.992;2022-09-03T11:47:21;28.30;41.00
61201;DHT22;47065;52.898;6.992;2022-09-03T11:49:50;28.20;41.80
61201;DHT22;47065;52.898;6.992;2022-09-03T11:52:30;28.20;41.70
61201;DHT22;47065;52.898;6.992;2022-09-03T11:55:05;28.20;41.40
61201;DHT22;47065;52.898;6.992;2022-09-03T11:57:39;28.20;42.00
61201;DHT22;47065;52.898;6.992;2022-09-03T12:02:36;28.30;41.90
61201;DHT22;47065;52.898;6.992;2022-09-03T12:14:05;28.10;40.90
61201;DHT22;47065;52.898;6.992;2022-09-03T12:19:46;28.20;41.70
61201;DHT22;47065;52.898;6.992;2022-09-03T12:22:16;28.20;42.10
61201;DHT22;47065;52.898;6.992;2022-09-03T12:24:43;28.20;42.00
61201;DHT22;47065;52.898;6.992;2022-09-03T12:27:31;28.30;42.00
61201;DHT22;47065;52.898;6.992;2022-09-03T12:29:59;28.30;40.60
61201;DHT22;47065;52.898;6.992;2022-09-03T12:32:27;28.20;41.30
61201;DHT22;47065;52.898;6.992;2022-09-03T12:34:54;28.10;41.10
61201;DHT22;47065;52.898;6.992;2022-09-03T12:37:22;28.20;41.60
61201;DHT22;47065;52.898;6.992;2022-09-03T12:39:53;28.20;41.80
61201;DHT22;47065;52.898;6.992;2022-09-03T12:42:25;28.20;41.80
61201;DHT22;47065;52.898;6.992;2022-09-03T12:44:52;28.20;42.30
61201;DHT22;47065;52.898;6.992;2022-09-03T12:47:20;28.30;41.70
61201;DHT22;47065;52.898;6.992;2022-09-03T12:49:49;28.30;41.30
61201;DHT22;47065;52.898;6.992;2022-09-03T12:52:28;28.30;41.20
61201;DHT22;47065;52.898;6.992;2022-09-03T12:57:39;28.40;41.50
61201;DHT22;47065;52.898;6.992;2022-09-03T13:00:09;28.50;41.60
61201;DHT22;47065;52.898;6.992;2022-09-03T13:05:18;28.60;40.90
61201;DHT22;47065;52.898;6.992;2022-09-03T13:07:51;28.60;41.30
61201;DHT22;47065;52.898;6.992;2022-09-03T13:10:29;28.60;40.80
61201;DHT22;47065;52.898;6.992;2022-09-03T13:13:01;28.60;40.60
61201;DHT22;47065;52.898;6.992;2022-09-03T13:15:28;28.40;41.30
61201;DHT22;47065;52.898;6.992;2022-09-03T13:19:04;28.40;41.30
61201;DHT22;47065;52.898;6.992;2022-09-03T13:24:22;28.40;41.70
61201;DHT22;47065;52.898;6.992;2022-09-03T13:27:23;28.30;41.60
61201;DHT22;47065;52.898;6.992;2022-09-03T13:30:07;28.30;42.00
61201;DHT22;47065;52.898;6.992;2022-09-03T13:33:00;28.40;41.30
61201;DHT22;47065;52.898;6.992;2022-09-03T13:35:43;28.40;41.80
61201;DHT22;47065;52.898;6.992;2022-09-03T13:41:01;28.40;42.30
61201;DHT22;47065;52.898;6.992;2022-09-03T13:49:25;28.30;42.80
61201;DHT22;47065;52.898;6.992;2022-09-03T13:52:20;28.30;43.20
61201;DHT22;47065;52.898;6.992;2022-09-03T13:54:53;28.30;43.10
61201;DHT22;47065;52.898;6.992;2022-09-03T13:57:25;28.40;42.40
61201;DHT22;47065;52.898;6.992;2022-09-03T14:02:54;28.40;42.50
61201;DHT22;47065;52.898;6.992;2022-09-03T14:21:27;28.10;42.50
61201;DHT22;47065;52.898;6.992;2022-09-03T14:24:12;28.20;42.70
61201;DHT22;47065;52.898;6.992;2022-09-03T14:26:53;28.30;43.00
61201;DHT22;47065;52.898;6.992;2022-09-03T14:29:26;28.30;43.00
61201;DHT22;47065;52.898;6.992;2022-09-03T14:37:12;28.20;43.00
61201;DHT22;47065;52.898;6.992;2022-09-03T14:39:54;28.20;42.40
61201;DHT22;47065;52.898;6.992;2022-09-03T14:45:18;28.10;43.40
61201;DHT22;47065;52.898;6.992;2022-09-03T14:48:06;28.10;43.50
61201;DHT22;47065;52.898;6.992;2022-09-03T14:56:15;28.00;43.70
61201;DHT22;47065;52.898;6.992;2022-09-03T15:01:33;27.80;44.50
61201;DHT22;47065;52.898;6.992;2022-09-03T15:12:39;27.80;43.80
61201;DHT22;47065;52.898;6.992;2022-09-03T15:15:20;27.50;43.50
61201;DHT22;47065;52.898;6.992;2022-09-03T15:20:45;27.50;44.50
61201;DHT22;47065;52.898;6.992;2022-09-03T15:32:20;27.40;44.70
61201;DHT22;47065;52.898;6.992;2022-09-03T15:37:43;27.50;44.70
61201;DHT22;47065;52.898;6.992;2022-09-03T15:42:51;27.30;44.70
61201;DHT22;47065;52.898;6.992;2022-09-03T15:48:36;27.30;44.40
61201;DHT22;47065;52.898;6.992;2022-09-03T15:54:22;27.10;44.90
61201;DHT22;47065;52.898;6.992;2022-09-03T15:59:53;27.00;45.40
61201;DHT22;47065;52.898;6.992;2022-09-03T16:02:46;26.80;45.30
61201;DHT22;47065;52.898;6.992;2022-09-03T16:05:34;26.80;45.50
61201;DHT22;47065;52.898;6.992;2022-09-03T16:10:56;27.00;45.40
61201;DHT22;47065;52.898;6.992;2022-09-03T16:16:24;26.90;46.10
61201;DHT22;47065;52.898;6.992;2022-09-03T16:19:03;26.80;46.30
61201;DHT22;47065;52.898;6.992;2022-09-03T16:21:45;26.90;46.10
61201;DHT22;47065;52.898;6.992;2022-09-03T16:24:40;27.00;46.20
61201;DHT22;47065;52.898;6.992;2022-09-03T16:27:23;26.90;46.60
61201;DHT22;47065;52.898;6.992;2022-09-03T16:30:06;26.80;46.70
61201;DHT22;47065;52.898;6.992;2022-09-03T16:38:48;26.80;46.10
61201;DHT22;47065;52.898;6.992;2022-09-03T16:41:56;26.70;46.10
61201;DHT22;47065;52.898;6.992;2022-09-03T16:47:20;26.40;46.30
61201;DHT22;47065;52.898;6.992;2022-09-03T16:50:07;26.40;46.10
61201;DHT22;47065;52.898;6.992;2022-09-03T16:53:03;26.40;46.70
61201;DHT22;47065;52.898;6.992;2022-09-03T16:55:59;26.30;46.70
61201;DHT22;47065;52.898;6.992;2022-09-03T17:01:49;26.30;46.90
61201;DHT22;47065;52.898;6.992;2022-09-03T17:10:16;26.00;47.10
61201;DHT22;47065;52.898;6.992;2022-09-03T17:15:47;25.90;47.50
61201;DHT22;47065;52.898;6.992;2022-09-03T17:19:10;25.80;47.80
61201;DHT22;47065;52.898;6.992;2022-09-03T17:30:06;25.50;48.30
61201;DHT22;47065;52.898;6.992;2022-09-03T17:38:24;25.20;48.20
61201;DHT22;47065;52.898;6.992;2022-09-03T17:41:22;25.00;48.30
61201;DHT22;47065;52.898;6.992;2022-09-03T17:49:45;24.50;49.90
61201;DHT22;47065;52.898;6.992;2022-09-03T17:52:35;24.30;50.20
61201;DHT22;47065;52.898;6.992;2022-09-03T17:57:44;23.90;50.70
61201;DHT22;47065;52.898;6.992;2022-09-03T18:00:22;23.80;51.00
61201;DHT22;47065;52.898;6.992;2022-09-03T18:02:58;23.60;51.00
61201;DHT22;47065;52.898;6.992;2022-09-03T18:05:42;23.40;51.30
61201;DHT22;47065;52.898;6.992;2022-09-03T18:11:13;23.20;51.60
61201;DHT22;47065;52.898;6.992;2022-09-03T18:16:36;22.90;51.80
61201;DHT22;47065;52.898;6.992;2022-09-03T18:21:45;22.70;52.40
61201;DHT22;47065;52.898;6.992;2022-09-03T18:24:44;22.60;52.50
61201;DHT22;47065;52.898;6.992;2022-09-03T18:27:38;22.50;52.60
61201;DHT22;47065;52.898;6.992;2022-09-03T18:30:23;22.30;52.90
61201;DHT22;47065;52.898;6.992;2022-09-03T18:33:07;22.30;53.20
61201;DHT22;47065;52.898;6.992;2022-09-03T18:35:51;22.10;53.30
61201;DHT22;47065;52.898;6.992;2022-09-03T18:38:37;22.00;53.60
61201;DHT22;47065;52.898;6.992;2022-09-03T18:45:08;21.80;54.40
61201;DHT22;47065;52.898;6.992;2022-09-03T18:51:11;21.60;54.70
61201;DHT22;47065;52.898;6.992;2022-09-03T18:54:34;21.50;55.00
61201;DHT22;47065;52.898;6.992;2022-09-03T18:57:50;21.40;55.00
61201;DHT22;47065;52.898;6.992;2022-09-03T19:00:44;21.30;55.20
61201;DHT22;47065;52.898;6.992;2022-09-03T19:03:53;21.20;55.00
61201;DHT22;47065;52.898;6.992;2022-09-03T19:12:48;21.00;55.40
61201;DHT22;47065;52.898;6.992;2022-09-03T19:21:53;20.80;55.50
61201;DHT22;47065;52.898;6.992;2022-09-03T19:24:38;20.70;55.40
61201;DHT22;47065;52.898;6.992;2022-09-03T19:27:45;20.70;55.60
61201;DHT22;47065;52.898;6.992;2022-09-03T19:34:02;20.70;55.60
61201;DHT22;47065;52.898;6.992;2022-09-03T19:37:06;20.60;56.30
61201;DHT22;47065;52.898;6.992;2022-09-03T19:46:50;20.40;55.90
61201;DHT22;47065;52.898;6.992;2022-09-03T19:55:54;20.30;55.90
61201;DHT22;47065;52.898;6.992;2022-09-03T19:58:50;20.30;56.10
61201;DHT22;47065;52.898;6.992;2022-09-03T20:01:37;20.20;56.20
61201;DHT22;47065;52.898;6.992;2022-09-03T20:04:37;20.20;56.20
61201;DHT22;47065;52.898;6.992;2022-09-03T20:07:23;20.20;56.40
61201;DHT22;47065;52.898;6.992;2022-09-03T20:10:10;20.10;56.30
61201;DHT22;47065;52.898;6.992;2022-09-03T20:16:26;20.00;56.40
61201;DHT22;47065;52.898;6.992;2022-09-03T20:25:23;19.80;56.80
61201;DHT22;47065;52.898;6.992;2022-09-03T20:31:00;19.70;56.90
61201;DHT22;47065;52.898;6.992;2022-09-03T20:36:21;19.60;57.00
61201;DHT22;47065;52.898;6.992;2022-09-03T20:38:54;19.60;57.10
61201;DHT22;47065;52.898;6.992;2022-09-03T20:52:35;19.30;57.70
61201;DHT22;47065;52.898;6.992;2022-09-03T20:55:22;19.30;58.00
61201;DHT22;47065;52.898;6.992;2022-09-03T21:00:51;19.20;58.30
61201;DHT22;47065;52.898;6.992;2022-09-03T21:03:21;19.10;58.60
61201;DHT22;47065;52.898;6.992;2022-09-03T21:14:51;18.80;59.10
61201;DHT22;47065;52.898;6.992;2022-09-03T21:25:37;18.60;59.50
61201;DHT22;47065;52.898;6.992;2022-09-03T21:28:13;18.60;59.50
61201;DHT22;47065;52.898;6.992;2022-09-03T21:30:46;18.60;59.60
61201;DHT22;47065;52.898;6.992;2022-09-03T21:33:19;18.50;59.80
61201;DHT22;47065;52.898;6.992;2022-09-03T21:35:53;18.50;59.80
61201;DHT22;47065;52.898;6.992;2022-09-03T21:38:33;18.50;59.80
61201;DHT22;47065;52.898;6.992;2022-09-03T21:41:29;18.40;59.80
61201;DHT22;47065;52.898;6.992;2022-09-03T21:44:02;18.40;60.00
61201;DHT22;47065;52.898;6.992;2022-09-03T21:49:37;18.40;60.00
61201;DHT22;47065;52.898;6.992;2022-09-03T21:52:07;18.40;60.00
61201;DHT22;47065;52.898;6.992;2022-09-03T21:54:36;18.40;60.10
61201;DHT22;47065;52.898;6.992;2022-09-03T22:02:28;18.20;60.10
61201;DHT22;47065;52.898;6.992;2022-09-03T22:04:55;18.20;60.30
61201;DHT22;47065;52.898;6.992;2022-09-03T22:07:47;18.20;60.40